createdAt,value
2023-03-24T00:00:21.426Z,14.40
2023-03-24T00:01:21.579Z,14.30
2023-03-24T00:02:21.876Z,14.16
2023-03-24T00:03:22.044Z,14.01
2023-03-24T00:04:22.074Z,13.95
2023-03-24T00:05:22.125Z,13.99
2023-03-24T00:06:22.243Z,14.09
2023-03-24T00:07:22.396Z,13.94
2023-03-24T00:08:22.585Z,13.67
2023-03-24T00:09:22.685Z,13.50
2023-03-24T00:10:23.238Z,13.34
2023-03-24T00:11:22.909Z,13.30
2023-03-24T00:12:23.055Z,13.22
2023-03-24T00:13:23.255Z,13.27
2023-03-24T00:14:23.355Z,13.29
2023-03-24T00:15:23.465Z,13.18
2023-03-24T00:16:23.706Z,13.09
2023-03-24T00:17:23.730Z,13.01
2023-03-24T00:18:23.944Z,13.00
2023-03-24T00:19:24.071Z,13.10
2023-03-24T00:20:24.160Z,13.06
2023-03-24T00:21:24.300Z,13.21
2023-03-24T00:22:24.457Z,13.19
2023-03-24T00:23:24.628Z,13.27
2023-03-24T00:24:24.691Z,13.31
2023-03-24T00:25:24.827Z,13.28
2023-03-24T00:26:25.678Z,13.36
2023-03-24T00:27:25.130Z,13.35
2023-03-24T00:28:25.267Z,13.48
2023-03-24T00:29:25.374Z,13.38
2023-03-24T00:30:25.477Z,13.40
2023-03-24T00:31:25.756Z,13.41
2023-03-24T00:32:25.761Z,13.42
2023-03-24T00:33:25.919Z,13.57
2023-03-24T00:34:26.015Z,13.67
2023-03-24T00:35:26.146Z,13.57
2023-03-24T00:36:26.238Z,13.44
2023-03-24T00:37:26.349Z,13.44
2023-03-24T00:38:26.526Z,13.52
2023-03-24T00:39:26.668Z,13.52
2023-03-24T00:40:26.814Z,13.56
2023-03-24T00:41:27.339Z,13.51
2023-03-24T00:42:27.066Z,13.39
2023-03-24T00:43:27.211Z,13.51
2023-03-24T00:44:27.314Z,13.52
2023-03-24T00:45:27.439Z,13.60
2023-03-24T00:46:27.759Z,13.65
2023-03-24T00:47:27.770Z,13.70
2023-03-24T00:48:27.905Z,13.73
2023-03-24T00:49:28.013Z,13.74
2023-03-24T00:50:28.134Z,13.79
2023-03-24T00:51:28.260Z,13.87
2023-03-24T00:52:28.407Z,13.90
2023-03-24T00:53:28.614Z,13.91
2023-03-24T00:54:28.747Z,13.96
2023-03-24T00:55:29.029Z,14.03
2023-03-24T00:56:29.011Z,14.03
2023-03-24T00:57:29.084Z,14.02
2023-03-24T00:58:29.252Z,13.97
2023-03-24T00:59:29.397Z,14.02
2023-03-24T01:00:29.554Z,14.02
2023-03-24T01:01:29.624Z,13.86
2023-03-24T01:02:29.863Z,13.88
2023-03-24T01:03:29.910Z,13.70
2023-03-24T01:04:30.066Z,13.64
2023-03-24T01:05:30.170Z,13.61
2023-03-24T01:06:30.288Z,13.65
2023-03-24T01:07:30.425Z,13.61
2023-03-24T01:08:30.616Z,13.67
2023-03-24T01:09:30.706Z,13.69
2023-03-24T01:10:30.799Z,13.71
2023-03-24T01:11:30.987Z,13.65
2023-03-24T01:12:31.106Z,13.53
2023-03-24T01:13:31.203Z,13.49
2023-03-24T01:14:31.358Z,13.49
2023-03-24T01:15:31.474Z,13.45
2023-03-24T01:16:31.726Z,13.44
2023-03-24T01:17:31.825Z,13.58
2023-03-24T01:18:31.861Z,13.57
2023-03-24T01:19:32.081Z,13.63
2023-03-24T01:20:32.123Z,13.57
2023-03-24T01:21:32.271Z,13.65
2023-03-24T01:22:32.363Z,13.67
2023-03-24T01:23:32.495Z,13.61
2023-03-24T01:24:32.674Z,13.64
2023-03-24T01:25:32.777Z,13.69
2023-03-24T01:26:32.848Z,13.63
2023-03-24T01:27:32.995Z,13.62
2023-03-24T01:28:33.133Z,13.53
2023-03-24T01:29:33.321Z,13.45
2023-03-24T01:30:33.400Z,13.50
2023-03-24T01:31:33.568Z,13.39
2023-03-24T01:32:33.807Z,13.33
2023-03-24T01:33:33.811Z,13.46
2023-03-24T01:34:33.958Z,13.57
2023-03-24T01:35:34.191Z,13.59
2023-03-24T01:36:34.230Z,13.62
2023-03-24T01:37:34.373Z,13.61
2023-03-24T01:38:34.459Z,13.67
2023-03-24T01:39:34.689Z,13.75
2023-03-24T01:40:34.723Z,13.84
2023-03-24T01:41:34.920Z,13.90
2023-03-24T01:42:34.992Z,13.93
2023-03-24T01:43:35.148Z,14.01
2023-03-24T01:44:35.320Z,13.97
2023-03-24T01:45:35.433Z,14.09
2023-03-24T01:46:35.594Z,14.13
2023-03-24T01:47:35.711Z,14.17
2023-03-24T01:48:35.812Z,14.23
2023-03-24T01:49:35.963Z,14.20
2023-03-24T01:50:36.102Z,14.18
2023-03-24T01:51:36.239Z,14.16
2023-03-24T01:52:36.337Z,14.11
2023-03-24T01:53:36.492Z,14.07
2023-03-24T01:54:36.605Z,14.16
2023-03-24T01:55:36.717Z,14.23
2023-03-24T01:56:36.876Z,14.21
2023-03-24T01:57:36.935Z,14.22
2023-03-24T01:58:37.035Z,14.35
2023-03-24T01:59:37.280Z,14.49
2023-03-24T02:00:37.256Z,14.47
2023-03-24T02:01:37.481Z,14.61
2023-03-24T02:02:37.565Z,14.66
2023-03-24T02:03:37.711Z,14.73
2023-03-24T02:04:37.794Z,14.84
2023-03-24T02:05:37.967Z,14.81
2023-03-24T02:06:38.053Z,14.89
2023-03-24T02:07:38.165Z,14.84
2023-03-24T02:08:38.296Z,14.93
2023-03-24T02:09:38.438Z,14.94
2023-03-24T02:10:38.594Z,15.10
2023-03-24T02:11:38.777Z,15.13
2023-03-24T02:12:38.872Z,15.19
2023-03-24T02:13:39.029Z,15.18
2023-03-24T02:14:39.143Z,15.24
2023-03-24T02:15:39.308Z,15.17
2023-03-24T02:16:39.490Z,15.31
2023-03-24T02:17:39.572Z,15.26
2023-03-24T02:18:39.667Z,15.49
2023-03-24T02:19:39.827Z,15.51
2023-03-24T02:20:39.996Z,15.48
2023-03-24T02:21:40.026Z,15.52
2023-03-24T02:22:40.183Z,15.60
2023-03-24T02:23:40.285Z,15.65
2023-03-24T02:24:40.415Z,15.65
2023-03-24T02:25:40.580Z,15.67
2023-03-24T02:26:40.719Z,15.81
2023-03-24T02:27:40.875Z,15.90
2023-03-24T02:28:40.992Z,15.87
2023-03-24T02:29:41.116Z,15.84
2023-03-24T02:30:41.197Z,15.96
2023-03-24T02:31:41.448Z,15.99
2023-03-24T02:32:41.467Z,15.99
2023-03-24T02:33:41.676Z,16.02
2023-03-24T02:34:41.728Z,16.05
2023-03-24T02:35:41.936Z,16.04
2023-03-24T02:36:41.989Z,15.98
2023-03-24T02:37:42.206Z,16.08
2023-03-24T02:38:42.324Z,16.05
2023-03-24T02:39:42.433Z,16.02
2023-03-24T02:40:42.567Z,15.97
2023-03-24T02:41:42.674Z,16.02
2023-03-24T02:42:42.844Z,16.00
2023-03-24T02:43:42.962Z,15.78
2023-03-24T02:44:43.107Z,15.82
2023-03-24T02:45:43.227Z,15.72
2023-03-24T02:46:43.310Z,15.82
2023-03-24T02:47:43.484Z,15.81
2023-03-24T02:48:43.625Z,15.90
2023-03-24T02:49:43.747Z,15.87
2023-03-24T02:50:43.984Z,15.98
2023-03-24T02:51:44.004Z,15.97
2023-03-24T02:52:44.095Z,15.92
2023-03-24T02:53:44.239Z,15.97
2023-03-24T02:54:44.448Z,16.07
2023-03-24T02:55:44.530Z,16.12
2023-03-24T02:56:44.689Z,16.12
2023-03-24T02:57:44.801Z,16.08
2023-03-24T02:58:44.934Z,16.04
2023-03-24T02:59:45.158Z,16.02
2023-03-24T03:00:45.304Z,16.04
2023-03-24T03:01:45.376Z,15.92
2023-03-24T03:02:45.438Z,15.97
2023-03-24T03:03:45.637Z,16.04
2023-03-24T03:04:45.806Z,15.98
2023-03-24T03:05:45.838Z,15.98
2023-03-24T03:06:46.008Z,15.94
2023-03-24T03:07:46.114Z,15.92
2023-03-24T03:08:46.233Z,15.94
2023-03-24T03:09:46.427Z,15.94
2023-03-24T03:10:46.770Z,15.96
2023-03-24T03:11:46.632Z,15.96
2023-03-24T03:12:48.683Z,15.98
2023-03-24T03:13:47.008Z,16.05
2023-03-24T03:14:47.087Z,16.04
2023-03-24T03:15:47.205Z,16.15
2023-03-24T03:16:47.318Z,16.17
2023-03-24T03:17:47.464Z,16.14
2023-03-24T03:18:47.589Z,16.17
2023-03-24T03:19:47.727Z,16.09
2023-03-24T03:20:47.888Z,16.20
2023-03-24T03:21:47.928Z,16.23
2023-03-24T03:22:48.082Z,16.25
2023-03-24T03:23:48.270Z,16.19
2023-03-24T03:24:48.380Z,16.14
2023-03-24T03:25:48.471Z,16.26
2023-03-24T03:26:48.634Z,16.26
2023-03-24T03:27:48.758Z,16.20
2023-03-24T03:28:48.905Z,16.08
2023-03-24T03:29:49.011Z,15.94
2023-03-24T03:30:49.146Z,16.00
2023-03-24T03:31:49.263Z,15.97
2023-03-24T03:32:49.488Z,16.07
2023-03-24T03:33:49.558Z,16.10
2023-03-24T03:34:49.674Z,16.14
2023-03-24T03:35:49.815Z,16.10
2023-03-24T03:36:49.972Z,16.05
2023-03-24T03:37:50.092Z,16.10
2023-03-24T03:38:50.273Z,16.12
2023-03-24T03:39:50.480Z,16.19
2023-03-24T03:40:50.477Z,16.17
2023-03-24T03:41:50.630Z,16.24
2023-03-24T03:42:50.760Z,16.26
2023-03-24T03:43:50.878Z,16.17
2023-03-24T03:44:50.987Z,16.02
2023-03-24T03:45:51.172Z,15.91
2023-03-24T03:46:51.213Z,15.81
2023-03-24T03:47:51.413Z,15.81
2023-03-24T03:48:51.558Z,15.52
2023-03-24T03:49:51.645Z,15.18
2023-03-24T03:50:59.880Z,15.03
2023-03-24T03:51:52.867Z,14.96
2023-03-24T03:52:52.003Z,15.01
2023-03-24T03:53:52.197Z,14.96
2023-03-24T03:54:52.272Z,15.05
2023-03-24T03:55:52.410Z,14.96
2023-03-24T03:56:52.572Z,14.70
2023-03-24T03:57:52.701Z,14.43
2023-03-24T03:58:52.847Z,14.43
2023-03-24T03:59:53.005Z,14.39
2023-03-24T04:00:53.047Z,14.37
2023-03-24T04:01:53.212Z,14.36
2023-03-24T04:02:53.465Z,14.28
2023-03-24T04:03:53.496Z,14.43
2023-03-24T04:05:05.151Z,14.28
2023-03-24T04:05:54.732Z,14.26
2023-03-24T04:06:53.908Z,14.43
2023-03-24T04:07:54.018Z,14.42
2023-03-24T04:08:54.127Z,14.56
2023-03-24T04:09:54.312Z,14.54
2023-03-24T04:10:54.436Z,14.65
2023-03-24T04:11:54.521Z,14.84
2023-03-24T04:12:54.669Z,14.91
2023-03-24T04:13:54.876Z,15.04
2023-03-24T04:14:54.924Z,15.14
2023-03-24T04:15:55.052Z,15.24
2023-03-24T04:16:55.172Z,15.34
2023-03-24T04:17:55.322Z,15.31
2023-03-24T04:18:55.481Z,15.37
2023-03-24T04:19:55.782Z,15.43
2023-03-24T04:20:55.702Z,15.45
2023-03-24T04:21:55.843Z,15.51
2023-03-24T04:22:56.020Z,15.57
2023-03-24T04:23:56.105Z,15.61
2023-03-24T04:24:56.459Z,15.67
2023-03-24T04:25:56.376Z,15.69
2023-03-24T04:26:56.530Z,15.79
2023-03-24T04:27:56.651Z,15.86
2023-03-24T04:28:56.812Z,15.91
2023-03-24T04:29:56.959Z,15.92
2023-03-24T04:30:57.061Z,15.94
2023-03-24T04:31:57.198Z,15.93
2023-03-24T04:32:57.388Z,16.09
2023-03-24T04:33:57.443Z,16.09
2023-03-24T04:34:57.621Z,16.17
2023-03-24T04:35:57.822Z,16.19
2023-03-24T04:36:57.866Z,16.33
2023-03-24T04:37:58.007Z,16.44
2023-03-24T04:38:58.150Z,16.46
2023-03-24T04:39:58.413Z,16.65
2023-03-24T04:40:58.430Z,16.89
2023-03-24T04:41:58.549Z,16.81
2023-03-24T04:42:58.656Z,17.02
2023-03-24T04:43:58.800Z,17.24
2023-03-24T04:44:58.980Z,17.16
2023-03-24T04:45:59.088Z,17.42
2023-03-24T04:46:59.195Z,17.57
2023-03-24T04:47:59.354Z,17.67
2023-03-24T04:48:59.463Z,17.81
2023-03-24T04:49:59.636Z,17.95
2023-03-24T04:50:59.752Z,18.05
2023-03-24T04:51:59.870Z,18.24
2023-03-24T04:52:59.965Z,18.55
2023-03-24T04:54:00.121Z,18.78
2023-03-24T04:55:00.265Z,19.16
2023-03-24T04:56:00.377Z,19.50
2023-03-24T04:57:00.480Z,20.30
2023-03-24T04:58:00.543Z,20.95
2023-03-24T04:59:00.697Z,21.38
2023-03-24T05:00:00.892Z,21.89
2023-03-24T05:01:00.984Z,22.12
2023-03-24T05:02:01.069Z,22.57
2023-03-24T05:03:01.246Z,23.14
2023-03-24T05:04:01.342Z,23.35
2023-03-24T05:05:01.485Z,23.59
2023-03-24T05:06:01.585Z,23.73
2023-03-24T05:07:01.741Z,24.19
2023-03-24T05:08:02.221Z,24.33
2023-03-24T05:09:02.004Z,24.48
2023-03-24T05:10:02.140Z,24.73
2023-03-24T05:11:02.236Z,25.01
2023-03-24T05:12:02.406Z,25.83
2023-03-24T05:13:02.497Z,26.10
2023-03-24T05:14:02.656Z,26.17
2023-03-24T05:15:02.746Z,26.30
2023-03-24T05:16:02.889Z,26.33
2023-03-24T05:17:03.036Z,26.48
2023-03-24T05:18:03.268Z,26.43
2023-03-24T05:19:03.266Z,26.49
2023-03-24T05:20:03.471Z,26.54
2023-03-24T05:21:03.483Z,26.90
2023-03-24T05:22:03.678Z,26.73
2023-03-24T05:23:03.707Z,27.04
2023-03-24T05:24:03.837Z,26.95
2023-03-24T05:25:03.939Z,27.21
2023-03-24T05:26:04.053Z,27.30
2023-03-24T05:27:04.202Z,27.13
2023-03-24T05:28:04.273Z,27.25
2023-03-24T05:29:04.393Z,27.07
2023-03-24T05:30:04.489Z,27.14
2023-03-24T05:31:04.671Z,27.20
2023-03-24T05:32:04.740Z,27.35
2023-03-24T05:33:04.883Z,27.13
2023-03-24T05:34:04.914Z,27.00
2023-03-24T05:35:05.067Z,27.27
2023-03-24T05:36:05.151Z,27.34
2023-03-24T05:37:06.317Z,27.52
2023-03-24T05:38:05.383Z,27.72
2023-03-24T05:39:05.481Z,27.81
2023-03-24T05:40:05.572Z,27.95
2023-03-24T05:41:05.719Z,28.12
2023-03-24T05:42:05.783Z,28.16
2023-03-24T05:43:05.954Z,28.50
2023-03-24T05:44:06.067Z,28.80
2023-03-24T05:45:06.111Z,28.96
2023-03-24T05:46:06.236Z,29.20
2023-03-24T05:47:06.331Z,29.04
2023-03-24T05:48:06.520Z,29.10
2023-03-24T05:49:06.733Z,28.96
2023-03-24T05:50:06.711Z,29.32
2023-03-24T05:51:06.895Z,29.71
2023-03-24T05:52:06.950Z,29.71
2023-03-24T05:53:07.131Z,29.82
2023-03-24T05:54:07.176Z,29.80
2023-03-24T05:55:07.331Z,29.97
2023-03-24T05:56:07.375Z,29.88
2023-03-24T05:57:07.528Z,29.99
2023-03-24T05:58:07.620Z,30.40
2023-03-24T05:59:07.744Z,30.44
2023-03-24T06:00:07.977Z,30.62
2023-03-24T06:01:07.973Z,30.60
2023-03-24T06:02:08.153Z,30.98
2023-03-24T06:03:08.304Z,30.55
2023-03-24T06:04:08.332Z,30.33
2023-03-24T06:05:08.406Z,30.12
2023-03-24T06:06:08.513Z,30.35
2023-03-24T06:07:08.614Z,30.31
2023-03-24T06:08:08.720Z,30.31
2023-03-24T06:09:08.916Z,30.47
2023-03-24T06:10:08.945Z,30.35
2023-03-24T06:11:09.052Z,29.99
2023-03-24T06:12:09.182Z,29.86
2023-03-24T06:13:09.509Z,30.01
2023-03-24T06:14:09.409Z,29.57
2023-03-24T06:15:09.553Z,29.32
2023-03-24T06:16:09.708Z,29.14
2023-03-24T06:17:09.747Z,29.10
2023-03-24T06:18:09.820Z,28.98
2023-03-24T06:19:10.014Z,29.10
2023-03-24T06:20:10.186Z,28.96
2023-03-24T06:21:10.174Z,28.52
2023-03-24T06:22:10.318Z,28.39
2023-03-24T06:23:10.394Z,28.29
2023-03-24T06:24:10.497Z,27.83
2023-03-24T06:25:10.611Z,27.88
2023-03-24T06:26:10.765Z,27.64
2023-03-24T06:27:10.888Z,27.52
2023-03-24T06:28:10.930Z,27.35
2023-03-24T06:29:11.144Z,27.27
2023-03-24T06:30:11.182Z,26.85
2023-03-24T06:31:11.395Z,26.76
2023-03-24T06:32:11.454Z,26.95
2023-03-24T06:33:11.540Z,26.71
2023-03-24T06:34:11.623Z,26.76
2023-03-24T06:35:11.748Z,26.75
2023-03-24T06:36:11.945Z,26.53
2023-03-24T06:37:11.978Z,26.39
2023-03-24T06:38:12.180Z,26.49
2023-03-24T06:39:12.240Z,26.51
2023-03-24T06:40:12.440Z,26.56
2023-03-24T06:41:12.416Z,26.41
2023-03-24T06:42:12.726Z,26.41
2023-03-24T06:43:12.648Z,26.44
2023-03-24T06:44:12.775Z,26.41
2023-03-24T06:45:12.883Z,26.33
2023-03-24T06:46:13.046Z,26.25
2023-03-24T06:47:13.104Z,26.33
2023-03-24T06:48:13.263Z,26.17
2023-03-24T06:49:13.329Z,26.31
2023-03-24T06:50:13.465Z,26.28
2023-03-24T06:51:13.598Z,26.43
2023-03-24T06:52:13.727Z,26.70
2023-03-24T06:53:13.781Z,26.61
2023-03-24T06:54:13.898Z,26.93
2023-03-24T06:55:13.999Z,27.28
2023-03-24T06:56:14.152Z,27.55
2023-03-24T06:57:14.288Z,27.53
2023-03-24T06:58:14.328Z,27.84
2023-03-24T06:59:14.450Z,28.10
2023-03-24T07:00:14.645Z,28.45
2023-03-24T07:01:14.670Z,28.62
2023-03-24T07:02:14.784Z,28.74
2023-03-24T07:03:14.928Z,28.26
2023-03-24T07:04:14.984Z,28.33
2023-03-24T07:05:15.112Z,28.49
2023-03-24T07:06:16.224Z,28.12
2023-03-24T07:07:52.710Z,28.14
2023-03-24T07:08:36.718Z,28.24
2023-03-24T07:09:16.560Z,28.54
2023-03-24T07:10:15.673Z,28.60
2023-03-24T07:11:15.807Z,28.50
2023-03-24T07:12:15.899Z,28.03
2023-03-24T07:13:15.995Z,27.73
2023-03-24T07:14:16.136Z,28.09
2023-03-24T07:15:16.271Z,27.97
2023-03-24T07:16:16.437Z,27.34
2023-03-24T07:17:16.631Z,27.07
2023-03-24T07:18:16.718Z,27.25
2023-03-24T07:19:16.866Z,27.53
2023-03-24T07:20:16.975Z,27.64
2023-03-24T07:21:17.102Z,27.23
2023-03-24T07:22:17.381Z,26.53
2023-03-24T07:23:17.328Z,26.44
2023-03-24T07:24:17.473Z,26.56
2023-03-24T07:25:17.608Z,26.58
2023-03-24T07:26:17.771Z,26.46
2023-03-24T07:27:17.942Z,26.53
2023-03-24T07:28:18.037Z,26.48
2023-03-24T07:29:18.179Z,26.68
2023-03-24T07:30:22.324Z,26.82
2023-03-24T07:31:19.561Z,27.14
2023-03-24T07:32:18.724Z,27.14
2023-03-24T07:33:18.724Z,26.93
2023-03-24T07:34:18.867Z,27.23
2023-03-24T07:35:19.009Z,27.34
2023-03-24T07:36:19.188Z,27.18
2023-03-24T07:37:19.297Z,27.35
2023-03-24T07:38:19.669Z,27.16
2023-03-24T07:39:19.520Z,27.34
2023-03-24T07:40:19.694Z,27.55
2023-03-24T07:41:19.787Z,27.79
2023-03-24T07:42:19.925Z,27.70
2023-03-24T07:43:20.067Z,27.55
2023-03-24T07:44:20.172Z,27.83
2023-03-24T07:45:20.293Z,27.88
2023-03-24T07:46:20.436Z,27.88
2023-03-24T07:47:20.644Z,27.70
2023-03-24T07:48:20.706Z,27.88
2023-03-24T07:49:20.818Z,27.79
2023-03-24T07:50:21.021Z,27.75
2023-03-24T07:51:21.124Z,27.50
2023-03-24T07:52:21.225Z,27.30
2023-03-24T07:53:21.412Z,27.48
2023-03-24T07:54:25.245Z,27.83
2023-03-24T07:55:21.633Z,27.64
2023-03-24T07:56:21.769Z,27.32
2023-03-24T07:57:21.972Z,27.55
2023-03-24T07:58:22.082Z,27.90
2023-03-24T07:59:22.264Z,28.64
2023-03-24T08:00:22.401Z,28.70
2023-03-24T08:01:22.419Z,28.41
2023-03-24T08:02:22.620Z,28.24
2023-03-24T08:03:22.858Z,28.39
2023-03-24T08:04:23.243Z,28.62
2023-03-24T08:05:22.969Z,28.74
2023-03-24T08:06:23.112Z,29.30
2023-03-24T08:07:23.210Z,29.18
2023-03-24T08:08:23.405Z,28.80
2023-03-24T08:09:24.087Z,28.98
2023-03-24T08:10:23.612Z,29.22
2023-03-24T08:11:23.751Z,29.46
2023-03-24T08:12:23.967Z,29.38
2023-03-24T08:13:24.027Z,29.97
2023-03-24T08:14:26.195Z,30.75
2023-03-24T08:15:24.323Z,31.07
2023-03-24T08:16:24.692Z,30.98
2023-03-24T08:17:24.620Z,31.07
2023-03-24T08:18:24.679Z,31.42
2023-03-24T08:19:24.883Z,31.59
2023-03-24T08:20:24.993Z,31.47
2023-03-24T08:21:25.133Z,31.70
2023-03-24T08:22:25.192Z,31.44
2023-03-24T08:23:25.342Z,30.73
2023-03-24T08:24:25.507Z,30.55
2023-03-24T08:25:25.557Z,30.69
2023-03-24T08:26:25.643Z,30.64
2023-03-24T08:27:25.793Z,30.35
2023-03-24T08:28:25.935Z,30.40
2023-03-24T08:29:26.088Z,30.55
2023-03-24T08:30:26.597Z,30.60
2023-03-24T08:31:26.372Z,30.38
2023-03-24T08:32:26.508Z,30.07
2023-03-24T08:33:26.572Z,29.67
2023-03-24T08:34:26.692Z,29.71
2023-03-24T08:35:26.845Z,29.57
2023-03-24T08:36:27.002Z,29.86
2023-03-24T08:37:27.069Z,29.94
2023-03-24T08:38:27.173Z,29.90
2023-03-24T08:39:27.305Z,29.73
2023-03-24T08:40:27.567Z,29.59
2023-03-24T08:41:27.618Z,28.94
2023-03-24T08:42:27.708Z,28.52
2023-03-24T08:43:27.815Z,28.27
2023-03-24T08:44:28.002Z,28.64
2023-03-24T08:45:28.075Z,28.88
2023-03-24T08:46:28.314Z,29.26
2023-03-24T08:47:28.440Z,29.55
2023-03-24T08:48:28.491Z,29.92
2023-03-24T08:49:28.618Z,30.42
2023-03-24T08:50:30.143Z,30.20
2023-03-24T08:51:28.905Z,30.14
2023-03-24T08:52:28.974Z,30.31
2023-03-24T08:53:29.125Z,30.25
2023-03-24T08:54:29.280Z,30.40
2023-03-24T08:55:29.397Z,30.53
2023-03-24T08:56:29.506Z,30.44
2023-03-24T08:57:29.636Z,30.89
2023-03-24T08:58:29.715Z,30.89
2023-03-24T08:59:29.850Z,30.62
2023-03-24T09:00:30.032Z,30.07
2023-03-24T09:01:30.204Z,30.05
2023-03-24T09:02:30.308Z,29.59
2023-03-24T09:03:30.380Z,29.59
2023-03-24T09:04:30.550Z,29.80
2023-03-24T09:05:54.030Z,30.07
2023-03-24T09:06:31.876Z,30.49
2023-03-24T09:07:30.949Z,30.60
2023-03-24T09:08:31.081Z,30.69
2023-03-24T09:09:31.190Z,31.19
2023-03-24T09:10:31.311Z,31.37
2023-03-24T09:11:31.419Z,31.05
2023-03-24T09:12:31.602Z,31.28
2023-03-24T09:13:31.708Z,31.54
2023-03-24T09:14:31.817Z,31.66
2023-03-24T09:15:31.980Z,31.54
2023-03-24T09:16:32.184Z,31.28
2023-03-24T09:17:32.262Z,31.17
2023-03-24T09:18:32.426Z,30.75
2023-03-24T09:19:32.500Z,30.23
2023-03-24T09:20:32.747Z,30.12
2023-03-24T09:21:32.817Z,30.40
2023-03-24T09:22:32.944Z,30.71
2023-03-24T09:23:33.014Z,30.82
2023-03-24T09:24:33.196Z,30.67
2023-03-24T09:25:33.318Z,30.84
2023-03-24T09:26:33.527Z,30.87
2023-03-24T09:27:33.640Z,30.75
2023-03-24T09:28:33.721Z,30.75
2023-03-24T09:29:33.918Z,30.80
2023-03-24T09:30:35.144Z,30.82
2023-03-24T09:31:34.254Z,30.47
2023-03-24T09:32:34.300Z,30.71
2023-03-24T09:33:34.503Z,30.94
2023-03-24T09:34:34.574Z,31.12
2023-03-24T09:35:34.745Z,31.30
2023-03-24T09:36:34.944Z,31.51
2023-03-24T09:37:35.062Z,31.49
2023-03-24T09:38:35.272Z,31.63
2023-03-24T09:39:35.246Z,31.70
2023-03-24T09:40:35.435Z,31.37
2023-03-24T09:41:35.542Z,31.61
2023-03-24T09:42:35.662Z,31.56
2023-03-24T09:43:35.836Z,31.80
2023-03-24T09:44:35.976Z,31.92
2023-03-24T09:45:36.058Z,31.70
2023-03-24T09:46:36.184Z,31.54
2023-03-24T09:47:36.313Z,31.70
2023-03-24T09:48:36.514Z,31.68
2023-03-24T09:49:36.585Z,32.09
2023-03-24T09:50:36.754Z,31.68
2023-03-24T09:51:40.230Z,31.35
2023-03-24T09:52:37.144Z,31.68
2023-03-24T09:53:37.143Z,31.78
2023-03-24T09:54:37.281Z,31.51
2023-03-24T09:55:37.391Z,31.70
2023-03-24T09:56:37.526Z,31.80
2023-03-24T09:57:37.661Z,31.85
2023-03-24T09:58:37.958Z,31.47
2023-03-24T09:59:37.932Z,31.14
2023-03-24T10:00:38.259Z,30.53
2023-03-24T10:01:42.873Z,30.69
2023-03-24T10:02:38.539Z,30.62
2023-03-24T10:03:38.543Z,30.14
2023-03-24T10:04:38.583Z,29.57
2023-03-24T10:05:38.734Z,29.02
2023-03-24T10:06:38.830Z,29.48
2023-03-24T10:07:38.939Z,29.59
2023-03-24T10:08:39.096Z,29.38
2023-03-24T10:09:39.328Z,29.36
2023-03-24T10:10:39.401Z,28.84
2023-03-24T10:11:39.517Z,28.37
2023-03-24T10:12:39.637Z,28.70
2023-03-24T10:13:39.844Z,28.84
2023-03-24T10:14:39.884Z,29.22
2023-03-24T10:15:40.027Z,29.86
2023-03-24T10:16:40.224Z,30.69
2023-03-24T10:17:40.363Z,31.14
2023-03-24T10:18:40.460Z,31.75
2023-03-24T10:19:40.587Z,31.07
2023-03-24T10:20:40.729Z,30.71
2023-03-24T10:21:40.826Z,30.35
2023-03-24T10:22:41.051Z,30.05
2023-03-24T10:23:41.120Z,29.42
2023-03-24T10:24:41.262Z,28.49
2023-03-24T10:25:41.374Z,28.54
2023-03-24T10:26:41.481Z,28.54
2023-03-24T10:27:41.626Z,28.78
2023-03-24T10:28:41.798Z,29.04
2023-03-24T10:29:41.988Z,29.63
2023-03-24T10:30:43.204Z,29.97
2023-03-24T10:31:42.164Z,30.25
2023-03-24T10:32:42.402Z,30.38
2023-03-24T10:33:42.416Z,30.62
2023-03-24T10:34:42.557Z,30.40
2023-03-24T10:35:42.954Z,30.23
2023-03-24T10:36:42.827Z,30.01
2023-03-24T10:37:42.971Z,29.94
2023-03-24T10:38:43.116Z,29.61
2023-03-24T10:39:45.168Z,30.09
2023-03-24T10:40:43.537Z,30.27
2023-03-24T10:41:43.538Z,30.27
2023-03-24T10:42:43.642Z,30.62
2023-03-24T10:43:43.796Z,30.73
2023-03-24T10:44:43.932Z,30.60
2023-03-24T10:45:44.183Z,30.67
2023-03-24T10:46:44.231Z,30.51
2023-03-24T10:47:44.351Z,30.75
2023-03-24T10:48:44.462Z,30.69
2023-03-24T10:49:44.552Z,30.58
2023-03-24T10:50:44.795Z,30.27
2023-03-24T10:51:44.831Z,30.35
2023-03-24T10:52:44.972Z,30.03
2023-03-24T10:53:45.111Z,29.63
2023-03-24T10:54:45.253Z,29.50
2023-03-24T10:55:45.576Z,29.30
2023-03-24T10:56:45.535Z,29.97
2023-03-24T10:57:45.620Z,30.40
2023-03-24T10:58:45.766Z,31.03
2023-03-24T10:59:45.939Z,31.30
2023-03-24T11:00:46.154Z,31.73
2023-03-24T11:01:46.257Z,31.95
2023-03-24T11:02:46.385Z,32.49
2023-03-24T11:03:46.431Z,32.31
2023-03-24T11:04:46.583Z,31.37
2023-03-24T11:05:46.975Z,30.18
2023-03-24T11:06:46.907Z,29.84
2023-03-24T11:07:46.994Z,29.04
2023-03-24T11:08:47.065Z,28.84
2023-03-24T11:09:47.205Z,28.52
2023-03-24T11:10:47.430Z,28.22
2023-03-24T11:11:47.538Z,27.52
2023-03-24T11:12:47.612Z,27.84
2023-03-24T11:13:47.788Z,28.22
2023-03-24T11:14:47.874Z,28.98
2023-03-24T11:15:48.185Z,29.80
2023-03-24T11:16:48.179Z,30.16
2023-03-24T11:17:48.343Z,31.47
2023-03-24T11:18:48.394Z,31.87
2023-03-24T11:19:48.535Z,32.31
2023-03-24T11:20:48.717Z,32.04
2023-03-24T11:21:48.826Z,32.59
2023-03-24T11:22:49.016Z,32.51
2023-03-24T11:23:49.078Z,32.82
2023-03-24T11:24:49.214Z,31.87
2023-03-24T11:25:49.558Z,31.59
2023-03-24T11:26:49.558Z,31.92
2023-03-24T11:27:49.704Z,31.85
2023-03-24T11:28:49.744Z,32.54
2023-03-24T11:29:49.894Z,32.51
2023-03-24T11:30:50.069Z,31.68
2023-03-24T11:31:50.184Z,31.63
2023-03-24T11:32:50.433Z,31.83
2023-03-24T11:33:50.480Z,32.61
2023-03-24T11:34:50.571Z,32.56
2023-03-24T11:36:03.001Z,32.61
2023-03-24T11:36:51.871Z,32.41
2023-03-24T11:37:50.975Z,32.59
2023-03-24T11:38:51.140Z,32.34
2023-03-24T11:39:51.200Z,31.97
2023-03-24T11:40:51.393Z,31.23
2023-03-24T11:41:51.524Z,30.67
2023-03-24T11:42:51.645Z,30.27
2023-03-24T11:43:51.918Z,30.51
2023-03-24T11:44:52.553Z,30.35
2023-03-24T11:45:52.171Z,30.89
2023-03-24T11:46:52.168Z,31.35
2023-03-24T11:47:52.328Z,31.35
2023-03-24T11:48:52.470Z,31.75
2023-03-24T11:49:52.552Z,31.30
2023-03-24T11:50:52.682Z,31.42
2023-03-24T11:51:52.874Z,31.33
2023-03-24T11:52:52.951Z,30.87
2023-03-24T11:53:53.112Z,31.14
2023-03-24T11:54:53.218Z,31.33
2023-03-24T11:55:53.367Z,30.55
2023-03-24T11:56:53.550Z,30.98
2023-03-24T11:57:53.629Z,30.80
2023-03-24T11:58:53.810Z,30.82
2023-03-24T11:59:53.907Z,30.03
2023-03-24T12:00:54.108Z,30.03
2023-03-24T12:01:54.118Z,30.42
2023-03-24T12:02:54.338Z,30.75
2023-03-24T12:03:54.565Z,30.84
2023-03-24T12:04:54.516Z,30.55
2023-03-24T12:05:54.946Z,30.31
2023-03-24T12:06:54.777Z,30.42
2023-03-24T12:07:54.887Z,30.42
2023-03-24T12:08:55.028Z,30.20
2023-03-24T12:09:55.125Z,29.97
2023-03-24T12:10:55.287Z,30.67
2023-03-24T12:11:55.369Z,30.49
2023-03-24T12:12:55.513Z,30.58
2023-03-24T12:13:55.680Z,30.25
2023-03-24T12:14:55.764Z,29.86
2023-03-24T12:15:55.941Z,29.55
2023-03-24T12:16:56.028Z,29.65
2023-03-24T12:17:56.288Z,29.22
2023-03-24T12:18:56.361Z,29.18
2023-03-24T12:19:56.440Z,29.02
2023-03-24T12:20:56.705Z,29.40
2023-03-24T12:21:56.790Z,30.16
2023-03-24T12:22:58.227Z,30.09
2023-03-24T12:23:57.000Z,30.69
2023-03-24T12:24:57.142Z,30.69
2023-03-24T12:25:57.289Z,31.40
2023-03-24T12:26:57.483Z,31.10
2023-03-24T12:27:57.602Z,31.19
2023-03-24T12:28:57.708Z,31.37
2023-03-24T12:29:57.817Z,31.30
2023-03-24T12:30:58.026Z,31.23
2023-03-24T12:31:58.095Z,31.03
2023-03-24T12:32:58.241Z,30.84
2023-03-24T12:33:58.311Z,30.96
2023-03-24T12:34:58.448Z,30.82
2023-03-24T12:35:58.611Z,31.37
2023-03-24T12:36:58.746Z,31.68
2023-03-24T12:37:58.868Z,31.35
2023-03-24T12:38:58.937Z,31.85
2023-03-24T12:39:59.029Z,32.56
2023-03-24T12:40:59.299Z,32.09
2023-03-24T12:41:59.324Z,31.68
2023-03-24T12:42:59.426Z,31.00
2023-03-24T12:43:59.600Z,31.42
2023-03-24T12:44:59.698Z,31.59
2023-03-24T12:46:00.332Z,31.63
2023-03-24T12:46:59.944Z,31.33
2023-03-24T12:48:00.275Z,31.23
2023-03-24T12:49:00.342Z,32.09
2023-03-24T12:50:00.375Z,32.56
2023-03-24T12:51:00.482Z,32.36
2023-03-24T12:52:00.619Z,32.17
2023-03-24T12:54:00.828Z,32.04
2023-03-24T12:55:01.126Z,31.70